createdAt,value
2018-03-06T00:00:05.170Z,66.07
2018-03-06T00:02:31.241Z,70.50
2018-03-06T00:04:57.376Z,73.10
2018-03-06T00:07:23.385Z,71.23
2018-03-06T00:09:49.426Z,74.87
2018-03-06T00:12:15.430Z,69.33
2018-03-06T00:14:41.461Z,74.27
2018-03-06T00:17:07.447Z,66.97
2018-03-06T00:19:33.497Z,63.80
2018-03-06T00:21:59.586Z,71.93
2018-03-06T00:24:25.603Z,71.80
2018-03-06T00:26:51.761Z,64.97
2018-03-06T00:29:17.793Z,80.50
2018-03-06T00:31:43.820Z,72.10
2018-03-06T00:34:09.834Z,65.90
2018-03-06T00:36:35.902Z,66.70
2018-03-06T00:39:01.908Z,62.07
2018-03-06T00:41:27.938Z,66.47
2018-03-06T00:43:53.950Z,69.87
2018-03-06T00:46:19.962Z,72.60
2018-03-06T00:48:45.985Z,65.70
2018-03-06T00:51:12.010Z,56.50
2018-03-06T00:53:38.034Z,59.30
2018-03-06T00:56:04.174Z,76.93
2018-03-06T00:58:30.232Z,56.30
2018-03-06T01:00:56.273Z,65.63
2018-03-06T01:03:22.305Z,70.60
2018-03-06T01:05:48.365Z,67.37
2018-03-06T01:08:14.401Z,61.23
2018-03-06T01:10:40.469Z,63.60
2018-03-06T01:13:06.512Z,65.07
2018-03-06T01:15:32.539Z,71.77
2018-03-06T01:17:58.549Z,83.03
2018-03-06T01:20:24.632Z,81.87
2018-03-06T01:22:50.668Z,67.17
2018-03-06T01:25:16.708Z,72.43
2018-03-06T01:27:42.741Z,60.73
2018-03-06T01:30:08.933Z,69.43
2018-03-06T01:32:34.995Z,66.37
2018-03-06T01:35:01.017Z,80.00
2018-03-06T01:37:27.030Z,79.50
2018-03-06T01:39:53.120Z,61.17
2018-03-06T01:42:19.127Z,68.07
2018-03-06T01:44:45.172Z,70.10
2018-03-06T01:47:11.214Z,75.57
2018-03-06T01:49:37.287Z,68.47
2018-03-06T01:52:03.220Z,85.33
2018-03-06T01:54:29.245Z,76.60
2018-03-06T01:56:55.226Z,73.63
2018-03-06T01:59:21.171Z,74.00
2018-03-06T02:01:47.181Z,76.33
2018-03-06T02:04:13.144Z,69.63
2018-03-06T02:06:39.201Z,78.47
2018-03-06T02:09:05.289Z,63.03
2018-03-06T02:11:31.270Z,74.23
2018-03-06T02:13:57.374Z,78.37
2018-03-06T02:16:23.421Z,81.20
2018-03-06T02:18:49.502Z,81.93
2018-03-06T02:21:15.576Z,83.23
2018-03-06T02:23:41.589Z,79.33
2018-03-06T02:26:07.633Z,84.47
2018-03-06T02:28:33.737Z,78.20
2018-03-06T02:30:59.773Z,77.50
2018-03-06T02:33:25.782Z,62.47
2018-03-06T02:35:51.790Z,65.53
2018-03-06T02:38:17.836Z,75.17
2018-03-06T02:40:43.832Z,66.43
2018-03-06T02:43:09.871Z,81.23
2018-03-06T02:45:35.897Z,74.30
2018-03-06T02:48:01.901Z,81.37
2018-03-06T02:50:27.921Z,69.23
2018-03-06T02:52:53.960Z,63.83
2018-03-06T02:55:20.050Z,72.77
2018-03-06T02:57:46.056Z,61.77
2018-03-06T03:00:12.058Z,80.17
2018-03-06T03:02:38.072Z,67.43
2018-03-06T03:05:04.333Z,65.47
2018-03-06T03:07:30.358Z,66.93
2018-03-06T03:09:56.414Z,82.50
2018-03-06T03:12:22.465Z,76.13
2018-03-06T03:14:48.514Z,86.57
2018-03-06T03:17:14.497Z,71.43
2018-03-06T03:19:40.484Z,86.33
2018-03-06T03:22:06.603Z,75.13
2018-03-06T03:24:32.580Z,73.97
2018-03-06T03:26:58.618Z,85.57
2018-03-06T03:29:24.626Z,80.60
2018-03-06T03:31:50.650Z,78.33
2018-03-06T03:34:16.657Z,72.90
2018-03-06T03:36:42.712Z,75.53
2018-03-06T03:39:08.721Z,90.17
2018-03-06T03:41:34.815Z,86.60
2018-03-06T03:44:00.838Z,65.47
2018-03-06T03:46:26.833Z,77.10
2018-03-06T03:48:52.879Z,74.80
2018-03-06T03:51:18.970Z,76.90
2018-03-06T03:53:44.996Z,73.63
2018-03-06T03:56:10.966Z,72.90
2018-03-06T03:58:37.000Z,76.93
2018-03-06T04:01:03.006Z,86.33
2018-03-06T04:03:29.049Z,79.10
2018-03-06T04:05:55.060Z,87.40
2018-03-06T04:08:21.150Z,77.83
2018-03-06T04:10:47.102Z,81.93
2018-03-06T04:13:13.134Z,81.03
2018-03-06T04:15:39.165Z,62.73
2018-03-06T04:18:05.192Z,80.80
2018-03-06T04:20:31.206Z,71.93
2018-03-06T04:22:57.225Z,66.03
2018-03-06T04:25:23.293Z,90.63
2018-03-06T04:27:49.337Z,77.60
2018-03-06T04:30:15.489Z,69.23
2018-03-06T04:32:41.502Z,68.93
2018-03-06T04:35:07.518Z,73.03
2018-03-06T04:37:33.589Z,71.47
2018-03-06T04:39:59.598Z,66.00
2018-03-06T04:42:25.594Z,59.70
2018-03-06T04:44:51.603Z,66.27
2018-03-06T04:47:17.603Z,72.73
2018-03-06T04:49:43.613Z,61.77
2018-03-06T04:52:10.096Z,65.63
2018-03-06T04:54:36.154Z,68.87
2018-03-06T04:57:02.255Z,62.23
2018-03-06T04:59:28.296Z,76.03
2018-03-06T05:01:54.335Z,71.27
2018-03-06T05:04:20.397Z,61.60
2018-03-06T05:06:46.473Z,65.87
2018-03-06T05:09:12.511Z,68.77
2018-03-06T05:11:38.529Z,56.57
2018-03-06T05:14:04.595Z,62.90
2018-03-06T05:16:30.659Z,65.77
2018-03-06T05:18:56.701Z,79.83
2018-03-06T05:21:22.721Z,57.80
2018-03-06T05:23:48.726Z,78.73
2018-03-06T05:26:14.797Z,80.97
2018-03-06T05:28:40.829Z,69.73
2018-03-06T05:31:06.887Z,58.40
2018-03-06T05:33:32.900Z,80.67
2018-03-06T05:35:58.921Z,64.50
2018-03-06T05:38:24.936Z,67.70
2018-03-06T05:40:50.981Z,61.27
2018-03-06T05:43:16.991Z,75.47
2018-03-06T05:45:43.029Z,65.83
2018-03-06T05:48:09.072Z,72.07
2018-03-06T05:50:35.149Z,58.43
2018-03-06T05:53:01.186Z,68.20
2018-03-06T05:55:27.224Z,72.93
2018-03-06T05:57:53.303Z,66.27
2018-03-06T06:00:19.400Z,68.70
2018-03-06T06:02:45.456Z,61.23
2018-03-06T06:05:11.522Z,68.70
2018-03-06T06:07:37.609Z,61.07
2018-03-06T06:10:03.784Z,74.30
2018-03-06T06:12:30.650Z,63.07
2018-03-06T06:14:56.752Z,77.07
2018-03-06T06:17:22.753Z,62.43
2018-03-06T06:19:48.776Z,65.60
2018-03-06T06:22:14.828Z,70.93
2018-03-06T06:24:41.008Z,72.43
2018-03-06T06:27:07.066Z,78.57
2018-03-06T06:29:33.086Z,59.80
2018-03-06T06:31:59.092Z,70.97
2018-03-06T06:34:25.117Z,70.43
2018-03-06T06:36:51.140Z,69.60
2018-03-06T06:39:17.078Z,63.37
2018-03-06T06:41:43.127Z,74.60
2018-03-06T06:44:09.090Z,70.80
2018-03-06T06:46:35.090Z,75.17
2018-03-06T06:49:01.136Z,61.63
2018-03-06T06:51:27.142Z,59.13
2018-03-06T06:53:53.184Z,62.17
2018-03-06T06:56:19.161Z,48.70
2018-03-06T06:58:45.200Z,59.27
2018-03-06T07:01:11.236Z,56.33
2018-03-06T07:03:37.242Z,56.47
2018-03-06T07:06:03.242Z,61.73
2018-03-06T07:08:29.296Z,56.47
2018-03-06T07:10:55.328Z,54.03
2018-03-06T07:13:21.436Z,55.53
2018-03-06T07:15:47.692Z,63.90
2018-03-06T07:18:13.693Z,66.60
2018-03-06T07:20:39.744Z,54.97
2018-03-06T07:23:05.757Z,64.07
2018-03-06T07:25:31.809Z,60.60
2018-03-06T07:27:57.836Z,69.60
2018-03-06T07:30:23.848Z,66.10
2018-03-06T07:32:49.913Z,65.57
2018-03-06T07:35:15.893Z,61.07
2018-03-06T07:37:41.865Z,52.33
2018-03-06T07:40:07.872Z,56.20
2018-03-06T07:42:33.876Z,62.07
2018-03-06T07:44:59.926Z,63.47
2018-03-06T07:47:25.996Z,65.13
2018-03-06T07:49:52.024Z,59.17
2018-03-06T07:52:18.114Z,68.83
2018-03-06T07:54:44.168Z,54.67
2018-03-06T07:57:10.112Z,65.93
2018-03-06T07:59:36.149Z,51.37
2018-03-06T08:02:02.124Z,67.17
2018-03-06T08:04:28.316Z,61.43
2018-03-06T08:06:54.322Z,59.50
2018-03-06T08:09:20.313Z,62.67
2018-03-06T08:11:46.384Z,56.93
2018-03-06T08:14:12.429Z,59.07
2018-03-06T08:16:38.491Z,49.70
2018-03-06T08:19:04.505Z,51.43
2018-03-06T08:21:30.532Z,57.03
2018-03-06T08:23:56.577Z,58.37
2018-03-06T08:26:22.601Z,52.43
2018-03-06T08:28:48.554Z,46.73
2018-03-06T08:31:14.597Z,47.30
2018-03-06T08:33:40.629Z,53.33
2018-03-06T08:36:06.633Z,58.07
2018-03-06T08:38:32.637Z,51.53
2018-03-06T08:40:58.630Z,53.30
2018-03-06T08:43:24.669Z,53.13
2018-03-06T08:45:50.686Z,57.27
2018-03-06T08:48:16.705Z,58.60
2018-03-06T08:50:42.710Z,63.60
2018-03-06T08:53:08.761Z,51.30
2018-03-06T08:55:34.761Z,57.57
2018-03-06T08:58:00.777Z,54.93
2018-03-06T09:00:26.789Z,59.60
2018-03-06T09:02:52.841Z,47.13
2018-03-06T09:05:18.845Z,59.50
2018-03-06T09:07:44.849Z,59.83
2018-03-06T09:10:10.830Z,58.73
2018-03-06T09:12:36.857Z,60.30
2018-03-06T09:15:03.045Z,59.10
2018-03-06T09:17:29.095Z,60.80
2018-03-06T09:19:55.097Z,68.93
2018-03-06T09:22:21.098Z,62.10
2018-03-06T09:24:47.118Z,53.03
2018-03-06T09:27:13.165Z,60.80
2018-03-06T09:29:39.228Z,57.70
2018-03-06T09:32:05.245Z,60.43
2018-03-06T09:34:31.274Z,65.70
2018-03-06T09:36:57.287Z,60.40
2018-03-06T09:39:23.285Z,55.20
2018-03-06T09:41:49.279Z,49.30
2018-03-06T09:44:15.321Z,55.63
2018-03-06T09:46:41.322Z,64.37
2018-03-06T09:49:07.313Z,117.57
2018-03-06T09:51:33.333Z,68.57
2018-03-06T09:53:59.346Z,59.80
2018-03-06T09:56:25.373Z,70.60
2018-03-06T09:58:51.366Z,59.77
2018-03-06T10:01:17.382Z,73.73
2018-03-06T10:03:43.425Z,58.83
2018-03-06T10:06:09.429Z,65.87
2018-03-06T10:08:35.459Z,54.93
2018-03-06T10:11:01.437Z,56.50
2018-03-06T10:13:27.470Z,59.70
2018-03-06T10:15:53.476Z,57.87
2018-03-06T10:18:19.533Z,59.23
2018-03-06T10:20:45.530Z,61.23
2018-03-06T10:23:11.537Z,53.70
2018-03-06T10:25:37.546Z,56.63
2018-03-06T10:28:03.554Z,60.23
2018-03-06T10:30:29.556Z,62.93
2018-03-06T10:32:55.538Z,56.67
2018-03-06T10:35:21.629Z,60.93
2018-03-06T10:37:47.643Z,66.27
2018-03-06T10:40:13.678Z,51.53
2018-03-06T10:42:39.688Z,58.50
2018-03-06T10:45:05.768Z,58.80
2018-03-06T10:47:31.793Z,60.53
2018-03-06T10:49:57.812Z,62.63
2018-03-06T10:52:23.860Z,74.07
2018-03-06T10:54:49.853Z,62.07
2018-03-06T10:57:15.937Z,65.73
2018-03-06T10:59:41.897Z,58.10
2018-03-06T11:02:13.910Z,61.60
2018-03-06T11:04:39.927Z,62.17
2018-03-06T11:07:05.966Z,57.20
2018-03-06T11:09:31.970Z,54.80
2018-03-06T11:11:57.987Z,67.80
2018-03-06T11:14:24.082Z,69.90
2018-03-06T11:16:50.089Z,59.67
2018-03-06T11:19:16.122Z,58.10
2018-03-06T11:21:42.228Z,64.77
2018-03-06T11:24:08.280Z,58.70
2018-03-06T11:26:34.399Z,49.90
2018-03-06T11:29:00.387Z,62.80
2018-03-06T11:31:26.451Z,63.07
2018-03-06T11:33:52.437Z,56.27
2018-03-06T11:36:18.491Z,56.63
2018-03-06T11:38:44.501Z,51.70
2018-03-06T11:41:10.533Z,63.27
2018-03-06T11:43:36.544Z,50.17
2018-03-06T11:46:02.637Z,62.90
2018-03-06T11:48:28.650Z,58.13
2018-03-06T11:50:54.658Z,53.27
2018-03-06T11:53:20.726Z,55.20
2018-03-06T11:55:46.769Z,59.97
2018-03-06T11:58:12.849Z,57.73
2018-03-06T12:00:38.885Z,58.93
2018-03-06T12:03:04.886Z,60.53
2018-03-06T12:05:30.908Z,57.50
2018-03-06T12:07:57.025Z,58.53
2018-03-06T12:10:23.002Z,58.20
2018-03-06T12:12:49.002Z,60.53
2018-03-06T12:15:15.059Z,61.40
2018-03-06T12:17:41.065Z,69.50
2018-03-06T12:20:07.073Z,66.13
2018-03-06T12:22:33.055Z,58.37
2018-03-06T12:24:59.085Z,62.10
2018-03-06T12:27:25.111Z,67.67
2018-03-06T12:29:51.140Z,60.50
2018-03-06T12:32:17.157Z,70.37
2018-03-06T12:34:43.185Z,61.13
2018-03-06T12:37:09.171Z,61.83
2018-03-06T12:39:35.176Z,65.20
2018-03-06T12:42:01.223Z,69.30
2018-03-06T12:44:27.219Z,58.63
2018-03-06T12:46:53.217Z,55.10
2018-03-06T12:49:19.273Z,55.67
2018-03-06T12:51:45.300Z,63.40
2018-03-06T12:54:11.286Z,67.77
2018-03-06T12:56:37.297Z,54.60
2018-03-06T12:59:03.312Z,57.37
2018-03-06T13:01:29.329Z,60.63
2018-03-06T13:03:55.309Z,54.97
2018-03-06T13:06:21.378Z,55.23
2018-03-06T13:08:47.400Z,54.90
2018-03-06T13:11:13.476Z,52.30
2018-03-06T13:13:39.489Z,57.20
2018-03-06T13:16:05.484Z,59.50
2018-03-06T13:18:31.517Z,52.47
2018-03-06T13:20:57.552Z,56.60
2018-03-06T13:23:23.506Z,59.43
2018-03-06T13:25:49.502Z,49.50
2018-03-06T13:28:15.569Z,59.13
2018-03-06T13:30:41.605Z,60.30
2018-03-06T13:33:07.613Z,51.40
2018-03-06T13:35:33.614Z,68.50
2018-03-06T13:37:59.638Z,57.10
2018-03-06T13:40:25.641Z,57.73
2018-03-06T13:42:51.708Z,67.17
2018-03-06T13:45:17.713Z,56.43
2018-03-06T13:47:43.685Z,60.27
2018-03-06T13:50:09.688Z,53.30
2018-03-06T13:52:35.871Z,49.93
2018-03-06T13:55:01.903Z,68.83
2018-03-06T13:57:27.890Z,62.73
2018-03-06T13:59:53.998Z,56.97
2018-03-06T14:02:20.031Z,61.97
2018-03-06T14:04:46.050Z,73.90
2018-03-06T14:07:12.143Z,54.37
2018-03-06T14:09:38.240Z,63.10
2018-03-06T14:12:04.268Z,56.83
2018-03-06T14:14:30.783Z,66.60
2018-03-06T14:16:56.874Z,68.90
2018-03-06T14:19:22.950Z,68.80
2018-03-06T14:21:48.956Z,63.37
2018-03-06T14:24:15.089Z,66.63
2018-03-06T14:26:41.149Z,67.43
2018-03-06T14:29:07.354Z,71.93
2018-03-06T14:31:33.424Z,63.13
2018-03-06T14:33:59.475Z,60.30
2018-03-06T14:36:25.519Z,68.83
2018-03-06T14:38:51.533Z,65.60
2018-03-06T14:41:17.616Z,74.50
2018-03-06T14:43:43.638Z,70.67
2018-03-06T14:46:10.038Z,68.27
2018-03-06T14:48:36.143Z,71.80
2018-03-06T14:51:02.175Z,73.03
2018-03-06T14:53:28.310Z,80.70
2018-03-06T14:55:54.356Z,72.87
2018-03-06T14:58:20.507Z,77.20
2018-03-06T15:00:46.568Z,83.83
2018-03-06T15:03:12.785Z,82.03
2018-03-06T15:05:38.985Z,76.73
2018-03-06T15:08:05.039Z,73.63
2018-03-06T15:10:31.105Z,72.37
2018-03-06T15:12:57.142Z,64.77
2018-03-06T15:15:23.164Z,69.80
2018-03-06T15:17:49.231Z,73.70
2018-03-06T15:20:15.262Z,59.67
2018-03-06T15:22:41.311Z,80.30
2018-03-06T15:25:07.406Z,76.47
2018-03-06T15:27:33.428Z,76.03
2018-03-06T15:30:03.454Z,79.60
2018-03-06T15:32:29.466Z,72.73
2018-03-06T15:34:55.456Z,73.83
2018-03-06T15:37:22.248Z,76.60
2018-03-06T15:40:01.653Z,80.63
2018-03-06T15:42:27.653Z,71.03
2018-03-06T15:44:53.664Z,76.97
2018-03-06T15:47:19.680Z,63.13
2018-03-06T15:49:45.726Z,78.03
2018-03-06T15:52:11.763Z,72.33
2018-03-06T15:54:37.848Z,70.63
2018-03-06T15:57:03.790Z,83.80
2018-03-06T15:59:29.823Z,87.87
2018-03-06T16:01:55.866Z,71.27
2018-03-06T16:04:21.898Z,74.83
2018-03-06T16:06:47.954Z,80.50
2018-03-06T16:09:13.959Z,78.53
2018-03-06T16:11:40.002Z,78.50
2018-03-06T16:14:06.008Z,72.57
2018-03-06T16:16:32.084Z,88.63
2018-03-06T16:18:58.173Z,82.17
2018-03-06T16:21:24.177Z,73.13
2018-03-06T16:23:50.390Z,88.57
2018-03-06T16:26:16.541Z,77.40
2018-03-06T16:28:42.692Z,64.90
2018-03-06T16:31:08.806Z,75.97
2018-03-06T16:33:34.837Z,70.00
2018-03-06T16:36:00.910Z,77.83
2018-03-06T16:38:26.954Z,79.87
2018-03-06T16:40:53.191Z,82.90
2018-03-06T16:43:19.248Z,67.27
2018-03-06T16:45:45.358Z,78.53
2018-03-06T16:48:11.413Z,68.43
2018-03-06T16:50:37.486Z,69.27
2018-03-06T16:53:03.466Z,85.13
2018-03-06T16:55:29.566Z,76.57
2018-03-06T16:57:55.622Z,92.73
2018-03-06T17:00:21.843Z,74.57
2018-03-06T17:02:47.777Z,88.27
2018-03-06T17:05:13.787Z,87.63
2018-03-06T17:07:39.874Z,119.40
2018-03-06T17:10:05.902Z,96.10
2018-03-06T17:12:31.942Z,239.50
2018-03-06T17:14:58.262Z,125.47
2018-03-06T17:17:24.309Z,118.20
2018-03-06T17:19:50.514Z,110.70
2018-03-06T17:22:16.567Z,92.20
2018-03-06T17:24:42.663Z,79.53
2018-03-06T17:27:08.792Z,83.10
2018-03-06T17:29:34.832Z,88.40
2018-03-06T17:32:00.830Z,89.40
2018-03-06T17:34:26.940Z,89.90
2018-03-06T17:36:52.967Z,88.20
2018-03-06T17:39:19.079Z,81.97
2018-03-06T17:41:45.101Z,85.47
2018-03-06T17:44:11.134Z,91.40
2018-03-06T17:46:37.253Z,84.00
2018-03-06T17:49:03.239Z,103.17
2018-03-06T17:51:29.286Z,88.17
2018-03-06T17:53:55.356Z,86.70
2018-03-06T17:56:21.365Z,102.17
2018-03-06T17:58:47.393Z,89.73
2018-03-06T18:01:13.408Z,81.37
2018-03-06T18:03:39.880Z,81.77
2018-03-06T18:06:05.903Z,109.23
2018-03-06T18:08:31.914Z,87.60
2018-03-06T18:10:57.966Z,95.17
2018-03-06T18:13:23.979Z,89.23
2018-03-06T18:15:50.042Z,98.87
2018-03-06T18:18:16.045Z,87.53
2018-03-06T18:20:41.992Z,89.33
2018-03-06T18:23:08.076Z,85.63
2018-03-06T18:25:34.092Z,88.10
2018-03-06T18:28:00.119Z,92.37
2018-03-06T18:30:26.165Z,82.10
2018-03-06T18:32:52.413Z,93.03
2018-03-06T18:35:18.434Z,94.30
2018-03-06T18:37:44.519Z,88.17
2018-03-06T18:40:10.595Z,87.60
2018-03-06T18:42:36.685Z,87.40
2018-03-06T18:45:03.042Z,92.80
2018-03-06T18:47:29.061Z,79.87
2018-03-06T18:50:03.110Z,102.23
2018-03-06T18:52:29.178Z,93.37
2018-03-06T18:54:55.214Z,94.17
2018-03-06T18:57:21.243Z,91.43
2018-03-06T18:59:47.190Z,74.20
2018-03-06T19:02:25.561Z,91.40
2018-03-06T19:05:05.024Z,80.97
2018-03-06T19:07:31.265Z,81.97
2018-03-06T19:09:57.279Z,83.47
2018-03-06T19:12:23.345Z,83.67
2018-03-06T19:14:49.370Z,78.03
2018-03-06T19:17:15.447Z,89.40
2018-03-06T19:19:41.460Z,82.47
2018-03-06T19:22:07.490Z,76.07
2018-03-06T19:24:33.507Z,90.67
2018-03-06T19:26:59.497Z,84.87
2018-03-06T19:29:26.223Z,81.90
2018-03-06T19:31:52.287Z,75.97
2018-03-06T19:34:18.329Z,87.90
2018-03-06T19:36:44.353Z,81.57
2018-03-06T19:39:10.399Z,76.73
2018-03-06T19:41:36.424Z,75.10
2018-03-06T19:44:02.457Z,75.43
2018-03-06T19:46:28.493Z,81.80
2018-03-06T19:48:54.548Z,90.27
2018-03-06T19:51:20.649Z,79.90
2018-03-06T19:53:46.687Z,78.90
2018-03-06T19:56:13.137Z,89.73
2018-03-06T19:58:39.392Z,82.53
2018-03-06T20:01:06.367Z,78.00
2018-03-06T20:03:32.606Z,68.43
2018-03-06T20:05:58.827Z,72.57
2018-03-06T20:08:24.797Z,75.07
2018-03-06T20:10:50.951Z,76.30
2018-03-06T20:13:17.024Z,81.27
2018-03-06T20:15:43.167Z,75.63
2018-03-06T20:18:09.329Z,72.13
2018-03-06T20:20:35.515Z,72.57
2018-03-06T20:23:01.578Z,78.17
2018-03-06T20:25:33.811Z,73.17
2018-03-06T20:27:59.976Z,78.73
2018-03-06T20:30:31.960Z,74.30
2018-03-06T20:33:04.151Z,70.50
2018-03-06T20:35:30.192Z,80.60
2018-03-06T20:37:56.226Z,72.17
2018-03-06T20:40:28.178Z,81.80
2018-03-06T20:42:54.170Z,83.93
2018-03-06T20:45:20.407Z,64.47
2018-03-06T20:47:46.447Z,67.30
2018-03-06T20:50:12.552Z,74.60
2018-03-06T20:52:44.720Z,75.17
2018-03-06T20:55:10.750Z,86.43
2018-03-06T20:57:37.126Z,74.27
2018-03-06T21:00:03.456Z,77.37
2018-03-06T21:02:55.589Z,71.20
2018-03-06T21:13:52.689Z,75.50
2018-03-06T21:16:18.716Z,77.33
2018-03-06T21:18:44.821Z,80.77
2018-03-06T21:21:10.854Z,86.40
2018-03-06T21:23:36.821Z,80.00
2018-03-06T21:26:02.870Z,83.90
2018-03-06T21:28:28.943Z,87.27
2018-03-06T21:30:54.949Z,75.03
2018-03-06T21:33:20.982Z,74.07
2018-03-06T21:35:47.924Z,76.37
2018-03-06T21:38:13.940Z,72.70
2018-03-06T21:40:39.964Z,93.17
2018-03-06T21:43:05.993Z,84.80
2018-03-06T21:45:31.974Z,78.90
2018-03-06T21:47:57.984Z,96.53
2018-03-06T21:50:24.101Z,80.90
2018-03-06T21:52:50.174Z,74.63
2018-03-06T21:55:16.188Z,76.13
2018-03-06T21:57:42.201Z,83.70
2018-03-06T22:00:08.228Z,92.87
2018-03-06T22:02:34.255Z,95.80
2018-03-06T22:05:00.333Z,86.50
2018-03-06T22:07:26.402Z,72.43
2018-03-06T22:09:52.440Z,81.73
2018-03-06T22:12:18.488Z,72.17
2018-03-06T22:14:44.550Z,85.43
2018-03-06T22:17:10.561Z,88.87
2018-03-06T22:19:36.637Z,88.53
2018-03-06T22:22:02.673Z,77.23
2018-03-06T22:24:28.697Z,84.87
2018-03-06T22:26:54.829Z,83.77
2018-03-06T22:29:20.875Z,75.63
2018-03-06T22:31:46.924Z,82.90
2018-03-06T22:34:12.957Z,81.27
2018-03-06T22:36:38.975Z,88.33
2018-03-06T22:39:04.987Z,87.53
2018-03-06T22:41:30.988Z,88.33
2018-03-06T22:43:57.064Z,73.43
2018-03-06T22:46:23.100Z,82.27
2018-03-06T22:48:49.117Z,72.60
2018-03-06T22:51:15.248Z,81.70
2018-03-06T22:53:41.333Z,80.80
2018-03-06T22:56:07.365Z,78.07
2018-03-06T22:58:33.404Z,74.83
2018-03-06T23:00:59.525Z,81.13
2018-03-06T23:03:25.536Z,77.60
2018-03-06T23:05:51.551Z,77.90
2018-03-06T23:08:17.583Z,80.80
2018-03-06T23:10:43.553Z,85.10
2018-03-06T23:13:09.565Z,72.37
2018-03-06T23:15:35.620Z,79.17
2018-03-06T23:18:01.602Z,76.87
2018-03-06T23:20:27.681Z,82.60
2018-03-06T23:22:53.702Z,90.33
2018-03-06T23:25:19.681Z,94.87
2018-03-06T23:27:45.689Z,81.53
2018-03-06T23:30:11.679Z,84.90
2018-03-06T23:32:37.723Z,76.30
2018-03-06T23:35:03.950Z,100.70
2018-03-06T23:37:29.915Z,85.50
2018-03-06T23:39:55.926Z,86.67
2018-03-06T23:42:22.010Z,96.10
2018-03-06T23:44:48.042Z,89.90
2018-03-06T23:47:14.041Z,88.50
2018-03-06T23:49:40.081Z,98.73
2018-03-06T23:52:06.085Z,95.20
2018-03-06T23:54:32.101Z,103.60
2018-03-06T23:56:58.097Z,90.53
2018-03-06T23:59:24.128Z,86.53
